โซล, ประเทศเกาหลีใต้

04:51 PM KST วัน เมษายน 19, 2015 (GMT +0900)
IGYEONGG3 | | Change Station
CLOSE
Current Station
Personal Weather Stations
Location: Bucheon3, GYEONGGI
Elevation: 115 ft
Nearby Weather Stations

Elev 115 ft 37.53 °N, 126.83 °E | Updated 13 minutes ago

Light Rain
ฝนตกเบาบาง
59.6 ฟาเรนไฮน์
Feels Like 59.6 ฟาเรนไฮน์
N
3.0
ลม ความผันแปร ลม from ทางทิศใต้และทิศตะวันออกเฉียงใต้
Gusts 10.0 mph

วันนี้
High -- | Low -- ฟาเรนไฮน์
--% Chance of Precip.
Yesterday
High -- | Low -- ฟาเรนไฮน์
Precip. -- นิ้ว
5:53 AM 7:10 PM
พระจันทร์ใหม่, 0% visible
ความดัน 29.65 นิ้ว
ทัศนวิสัย 1.1 ไมล์
เมฆ มีเมฆคลุมเป็นบางส่วน 600 ft
มีเมฆคลุมเป็นส่วนใหญ่ 2500 ft
มีเมฆคลุมไปทั่ว 8000 ft
อุณหภูมิที่อากาศอาจจับตัวเป็นหยาดน้ำค้าง 56 ฟาเรนไฮน์
ความชื้น 89%
Rainfall 0.25 นิ้ว
Snow Depth Not available.
UV 0.0 out of 12
Pollen Not available.
Air Quality Not available.
Flu Activity Not available.
METAR RKSI 190730Z 07009KT 1800 -RA BR SCT006 BKN025 OVC080 14/12 Q1004 NOSIG

More Conditions Fewer Conditions

ความดัน 29.65 นิ้ว
ทัศนวิสัย 1.1 ไมล์
เมฆ มีเมฆคลุมเป็นบางส่วน 600 ft
มีเมฆคลุมเป็นส่วนใหญ่ 2500 ft
มีเมฆคลุมไปทั่ว 8000 ft
อุณหภูมิที่อากาศอาจจับตัวเป็นหยาดน้ำค้าง 56 ฟาเรนไฮน์
ความชื้น 89%
Rainfall 0.25 นิ้ว
Snow Depth Not available.
UV 0.0 out of 12
Pollen Not available.
Air Quality Not available.
Flu Activity Not available.
METAR RKSI 190730Z 07009KT 1800 -RA BR SCT006 BKN025 OVC080 14/12 Q1004 NOSIG

More Conditions Fewer Conditions

10-Day Weather Forecast

Almanac

ดาราศาสตร์

Apr. 19, 2015 Rise Set
Actual Time
Civil Twilight
Nautical Twilight
Astronomical Twilight
Moon
Length Of Visible Light
ความยาวของวัน
Tomorrow will be .
, % of the Moon is Illuminated

Today's Extremes

Country Highs Country Lows

Community

WunderPhotos

Upload Photos

1,814,723 photos uploaded!

WunderBlogs® & News

Nearby

Air Quality

  Air Quality AQ Index Pollutant
Not available.

Snow Depth

Station Depth Elevation

Earthquake Activity

City Distance Mag. Time & Date
Minimum magnitude displayed is 2.5.

Coastal Water Temperatures

สถานที่ อุณหภูมิ

Stations

Nearby Weather Stations

Station Location Temp ลมหนาว อุณหภูมิที่อากาศอาจจับตัวเป็นหยาดน้ำค้าง ความชื้น ลม Precip. Elev ปรับปรุงล่าสุด Type